Terminal Aerodrome Forecast
Issued by NWS

Home | Current Version | Previous Version | Text Only | Print | Product List | Glossary On
Versions: 1 2 3 4 5 6 7 8 9 10 11 12 13 14 15 16 17 18 19 20 21
000
FTUS41 KGYX 072128 AAC
TAFRKD
TAF AMD
KRKD 072128Z 0721/0818 19007KT P6SM OVC004
      TEMPO 0722/0801 2SM -SHRA BR SCT004 BKN008 BKN040
     FM080100 17006KT 1SM -SHRA BR OVC009
     FM080400 19008KT 1/4SM FG VV001
     FM081200 23006KT 4SM BR OVC003
     FM081400 27008KT P6SM OVC015
      AMD LTD TO CLD VIS AND WIND=

USA.gov is the U.S. government's official web portal to all federal, state and local government web resources and services.